Time;durP1;ratioP1;P1;durP2;ratioP2;P2;SDS_P1;SDS_P2;PMS_P1;PMS_P2;Temp;Humidity;BMP_temperature;BMP_pressure;BME280_temperature;BME280_humidity;BME280_pressure;Samples;Min_cycle;Max_cycle;Signal;HPM_P1;HPM_P2
2020/12/18 00:01:29;;;;;;;38.95;22.22;;;;;;;5.15;84.80;101601.11;1568880;90;21237;-84
2020/12/18 00:03:59;;;;;;;35.78;21.33;;;;;;;5.18;84.82;101602.45;1570056;89;21236;-85
2020/12/18 00:06:35;;;;;;;41.30;22.27;;;;;;;5.18;84.78;101603.74;1553997;90;21702;-85
2020/12/18 00:09:04;;;;;;;40.00;21.97;;;;;;;5.18;84.79;101606.30;1543700;90;21516;-84
2020/12/18 00:11:31;;;;;;;38.45;20.92;;;;;;;5.20;84.80;101605.89;1554270;90;21254;-84
2020/12/18 00:13:57;;;;;;;41.23;22.87;;;;;;;5.22;84.80;101605.92;1536630;91;21234;-84
2020/12/18 00:16:26;;;;;;;41.95;20.95;;;;;;;5.22;84.81;101604.64;1527313;91;22676;-85
2020/12/18 00:18:52;;;;;;;36.00;20.20;;;;;;;5.21;84.80;101606.34;1533903;91;21212;-84
2020/12/18 00:21:23;;;;;;;44.40;21.82;;;;;;;5.22;84.81;101613.20;1549105;90;21253;-85
2020/12/18 00:23:50;;;;;;;35.08;21.70;;;;;;;5.23;84.81;101612.78;1561433;90;21250;-84
2020/12/18 00:26:17;;;;;;;40.43;22.15;;;;;;;5.25;84.83;101618.81;1554590;91;21744;-84
2020/12/18 00:28:44;;;;;;;;;;;;;;;5.25;84.82;101616.25;1557491;91;21698;-84
2020/12/18 00:31:11;;;;;;;34.92;21.05;;;;;;;5.26;84.85;101615.41;1550676;90;21025;-85
2020/12/18 00:33:37;;;;;;;35.60;20.77;;;;;;;5.27;84.82;101614.58;1540862;90;21262;-84
2020/12/18 00:36:05;;;;;;;36.80;20.57;;;;;;;5.26;84.83;101617.56;1551854;90;21749;-85
2020/12/18 00:38:31;;;;;;;38.80;21.45;;;;;;;5.27;84.85;101618.42;1551482;90;21698;-85
2020/12/18 00:40:58;;;;;;;39.75;21.70;;;;;;;5.27;84.87;101619.71;1545063;90;21226;-85
2020/12/18 00:43:24;;;;;;;35.28;20.80;;;;;;;5.26;84.83;101625.25;1557550;90;21296;-85
2020/12/18 00:45:50;;;;;;;39.35;23.00;;;;;;;5.26;84.85;101625.25;1551772;90;21248;-85
2020/12/18 00:48:16;;;;;;;37.10;20.15;;;;;;;5.27;84.90;101627.41;1550518;90;21269;-85
2020/12/18 00:50:43;;;;;;;36.98;20.85;;;;;;;5.27;84.88;101628.27;1549109;90;21272;-85
2020/12/18 00:53:09;;;;;;;38.48;20.65;;;;;;;5.27;84.89;101630.83;1558774;90;21245;-85
2020/12/18 00:55:35;;;;;;;39.33;21.73;;;;;;;5.28;84.88;101631.70;1552021;90;21244;-85
2020/12/18 00:58:01;;;;;;;39.65;21.17;;;;;;;5.28;84.89;101631.70;1554724;90;21707;-85
2020/12/18 01:00:28;;;;;;;40.15;21.90;;;;;;;5.28;84.86;101631.28;1565998;89;21261;-85
2020/12/18 01:02:55;;;;;;;41.40;20.97;;;;;;;5.27;84.88;101626.98;1549475;90;21291;-84
2020/12/18 01:05:21;;;;;;;33.50;19.40;;;;;;;5.27;84.89;101636.38;1552932;90;21213;-85
2020/12/18 01:07:47;;;;;;;34.05;20.80;;;;;;;5.27;84.91;101638.52;1547818;90;21259;-84
2020/12/18 01:10:13;;;;;;;37.88;20.48;;;;;;;5.28;84.94;101636.83;1547850;90;21272;-84
2020/12/18 01:12:40;;;;;;;37.60;20.75;;;;;;;5.29;84.94;101637.27;1553182;90;21671;-85
2020/12/18 01:15:06;;;;;;;38.33;22.42;;;;;;;5.29;84.95;101647.12;1553856;90;21229;-85
2020/12/18 01:17:32;;;;;;;37.50;20.82;;;;;;;5.30;84.97;101645.00;1559975;90;21217;-84
2020/12/18 01:19:59;;;;;;;34.98;20.40;;;;;;;5.31;85.00;101643.30;1542805;90;21293;-84
2020/12/18 01:22:25;;;;;;;37.10;21.37;;;;;;;5.30;84.96;101648.84;1550111;90;21302;-84
2020/12/18 01:24:51;;;;;;;35.92;20.15;;;;;;;5.30;84.97;101654.39;1551060;90;21283;-84
2020/12/18 01:27:17;;;;;;;38.55;20.60;;;;;;;5.28;84.98;101653.08;1561049;90;21257;-85
2020/12/18 01:29:44;;;;;;;36.23;20.30;;;;;;;5.28;84.97;101660.77;1562235;90;21596;-85
2020/12/18 01:32:10;;;;;;;35.75;20.82;;;;;;;5.28;84.95;101658.62;1553911;90;21225;-85
2020/12/18 01:34:36;;;;;;;38.53;20.27;;;;;;;5.27;84.99;101666.73;1562193;90;21508;-85
2020/12/18 01:37:03;;;;;;;31.27;19.57;;;;;;;5.26;84.99;101656.02;1539597;90;21228;-85
2020/12/18 01:39:29;;;;;;;34.18;19.87;;;;;;;5.26;84.98;101657.31;1556999;90;21270;-85
2020/12/18 01:41:56;;;;;;;38.30;20.97;;;;;;;5.26;85.02;101655.16;1563346;90;21231;-85
2020/12/18 01:44:22;;;;;;;33.23;19.85;;;;;;;5.25;85.03;101659.42;1559160;90;21290;-85
2020/12/18 01:46:48;;;;;;;38.60;20.77;;;;;;;5.27;85.07;101660.73;1552175;91;21260;-85
2020/12/18 01:49:15;;;;;;;37.48;20.70;;;;;;;5.25;85.04;101661.12;1543213;91;21929;-85
2020/12/18 01:51:42;;;;;;;39.08;20.97;;;;;;;5.24;85.04;101657.69;1540077;91;21759;-85
2020/12/18 01:54:08;;;;;;;36.93;20.30;;;;;;;5.25;85.08;101661.12;1548063;91;22003;-85
2020/12/18 01:56:34;;;;;;;38.25;21.73;;;;;;;5.24;85.08;101658.97;1541070;91;21267;-85
2020/12/18 01:59:01;;;;;;;37.28;20.05;;;;;;;5.25;85.11;101659.42;1542506;91;21279;-85
2020/12/18 02:01:27;;;;;;;39.15;19.92;;;;;;;5.26;85.12;101662.85;1541049;91;21292;-85
2020/12/18 02:03:55;;;;;;;35.15;19.85;;;;;;;5.26;85.12;101660.28;1539901;91;21251;-85
2020/12/18 02:06:25;;;;;;;33.58;19.95;;;;;;;5.26;85.12;101662.44;1545526;91;21240;-85
2020/12/18 02:08:52;;;;;;;32.73;19.27;;;;;;;5.27;85.09;101664.59;1539438;91;21698;-84
2020/12/18 02:11:21;;;;;;;36.10;20.12;;;;;;;5.27;85.12;101665.87;1540983;91;21250;-85
2020/12/18 02:13:52;;;;;;;35.10;19.55;;;;;;;5.26;85.10;101664.13;1540416;90;21198;-85
2020/12/18 02:16:20;;;;;;;33.20;19.75;;;;;;;5.26;85.08;101665.00;1558559;91;21249;-84
2020/12/18 02:18:47;;;;;;;33.30;17.70;;;;;;;5.25;85.12;101668.39;1554797;91;21245;-85
2020/12/18 02:21:14;;;;;;;31.73;19.12;;;;;;;5.24;85.12;101673.48;1540875;90;21274;-85
2020/12/18 02:23:47;;;;;;;;;;;;;;;5.24;85.14;101676.92;1546034;91;21746;-85
2020/12/18 02:26:15;;;;;;;29.55;18.05;;;;;;;5.23;85.12;101672.62;1543525;91;20318;-84
2020/12/18 02:28:45;;;;;;;26.97;16.20;;;;;;;5.22;85.10;101675.16;1552773;90;21254;-85
2020/12/18 02:31:13;;;;;;;30.80;18.65;;;;;;;5.19;85.07;101677.68;1547245;91;21262;-84
2020/12/18 02:33:43;;;;;;;35.83;19.65;;;;;;;5.18;85.11;101681.94;1536920;91;21279;-85
2020/12/18 02:36:10;;;;;;;30.37;19.00;;;;;;;5.18;85.13;101687.48;1535321;90;21216;-85
2020/12/18 02:38:36;;;;;;;;;;;;;;;5.15;85.08;101686.12;1542141;91;21270;-85
2020/12/18 02:41:03;;;;;;;;;;;;;;;5.12;85.09;101687.34;1556980;90;20318;-85
2020/12/18 02:43:29;;;;;;;32.55;18.17;;;;;;;5.08;85.08;101690.25;1559588;90;20335;-85
2020/12/18 02:45:56;;;;;;;32.90;17.40;;;;;;;5.06;85.05;101692.32;1536899;90;21255;-85
2020/12/18 02:48:22;;;;;;;;;;;;;;;4.99;84.97;101688.74;1538936;92;21221;-85
2020/12/18 02:50:49;;;;;;;28.00;17.40;;;;;;;4.93;85.04;101686.03;1542010;91;21304;-85
2020/12/18 02:53:25;;;;;;;30.45;18.02;;;;;;;4.89;85.03;101686.78;1538605;91;21318;-85
2020/12/18 02:55:49;;;;;;;33.48;18.67;;;;;;;4.84;85.00;101682.83;1530153;92;21782;-85
2020/12/18 02:58:15;;;;;;;31.27;19.27;;;;;;;4.79;85.02;101689.95;1526600;92;21263;-85
2020/12/18 03:00:42;;;;;;;33.00;18.73;;;;;;;4.74;85.00;101683.84;1529477;91;21265;-84
2020/12/18 03:03:08;;;;;;;32.75;18.35;;;;;;;4.69;85.02;101691.83;1527445;91;21912;-85
2020/12/18 03:05:36;;;;;;;31.77;18.23;;;;;;;4.64;85.01;101689.18;1540744;91;21237;-85
2020/12/18 03:08:03;;;;;;;35.75;19.02;;;;;;;4.60;85.03;101686.09;1538586;92;21651;-85
2020/12/18 03:10:30;;;;;;;31.05;17.67;;;;;;;4.54;85.00;101685.52;1540609;92;21685;-85
2020/12/18 03:12:56;;;;;;;33.00;19.70;;;;;;;4.51;85.02;101688.41;1526305;92;22332;-85
2020/12/18 03:15:22;;;;;;;30.62;17.92;;;;;;;4.46;85.03;101689.98;1535585;91;22375;-84
2020/12/18 03:17:49;;;;;;;28.52;17.50;;;;;;;4.42;85.03;101692.88;1523364;92;21602;-85
2020/12/18 03:20:15;;;;;;;31.00;18.10;;;;;;;4.37;85.02;101695.73;1532587;92;21250;-85
2020/12/18 03:22:41;;;;;;;33.10;20.27;;;;;;;4.34;85.04;101695.66;1529967;92;21222;-85
2020/12/18 03:25:08;;;;;;;35.88;19.90;;;;;;;4.30;85.10;101692.14;1532357;91;22146;-85
2020/12/18 03:27:34;;;;;;;32.48;18.77;;;;;;;4.28;85.10;101700.61;1529476;91;21528;-85
2020/12/18 03:30:00;;;;;;;34.53;19.35;;;;;;;4.25;85.12;101699.24;1532891;92;21270;-85
2020/12/18 03:32:27;;;;;;;35.20;19.73;;;;;;;4.23;85.07;101706.02;1538187;91;21213;-85
2020/12/18 03:34:53;;;;;;;32.38;19.10;;;;;;;4.21;85.17;101705.10;1521804;92;21235;-84
2020/12/18 03:37:19;;;;;;;38.00;21.07;;;;;;;4.21;85.16;101707.66;1533313;91;21250;-85
2020/12/18 03:39:46;;;;;;;35.00;19.52;;;;;;;4.20;85.17;101707.20;1542138;92;21672;-85
2020/12/18 03:42:12;;;;;;;29.98;18.07;;;;;;;4.20;85.19;101709.36;1534302;91;21291;-85
2020/12/18 03:44:39;;;;;;;35.30;20.37;;;;;;;4.21;85.18;101705.97;1531431;91;21256;-85
2020/12/18 03:47:05;;;;;;;36.93;19.17;;;;;;;4.22;85.19;101712.83;1534625;91;21236;-84
2020/12/18 03:49:31;;;;;;;32.03;19.25;;;;;;;4.23;85.22;101704.73;1537587;91;21222;-84
2020/12/18 03:51:57;;;;;;;35.35;20.27;;;;;;;4.26;85.25;101713.78;1532693;92;21885;-85
2020/12/18 03:54:24;;;;;;;31.52;19.07;;;;;;;4.27;85.24;101706.55;1534994;91;21272;-85
2020/12/18 03:56:50;;;;;;;35.50;19.90;;;;;;;4.28;85.22;101714.69;1524322;92;22076;-85
2020/12/18 03:59:16;;;;;;;32.53;19.45;;;;;;;4.30;85.28;101717.74;1528823;91;21722;-84
2020/12/18 04:01:43;;;;;;;31.20;18.05;;;;;;;4.33;85.28;101716.95;1533512;92;21217;-84
2020/12/18 04:04:09;;;;;;;31.02;18.00;;;;;;;4.33;85.29;101715.68;1532380;92;21237;-85
2020/12/18 04:06:35;;;;;;;34.67;19.07;;;;;;;4.35;85.33;101720.84;1537496;92;21262;-85
2020/12/18 04:09:01;;;;;;;28.75;17.30;;;;;;;4.38;85.33;101719.23;1534056;91;21774;-84
2020/12/18 04:11:28;;;;;;;29.90;18.23;;;;;;;4.40;85.31;101713.73;1529694;92;21237;-84
2020/12/18 04:13:54;;;;;;;31.70;17.87;;;;;;;4.42;85.34;101715.92;1524729;92;21275;-84
2020/12/18 04:16:20;;;;;;;32.40;18.82;;;;;;;4.42;85.27;101713.78;1522257;91;21273;-84
2020/12/18 04:18:49;;;;;;;35.52;19.05;;;;;;;4.40;85.29;101712.88;1531278;91;21233;-84
2020/12/18 04:21:15;;;;;;;31.25;18.90;;;;;;;4.41;85.37;101719.31;1532557;92;21255;-84
2020/12/18 04:23:41;;;;;;;32.53;18.75;;;;;;;4.43;85.38;101713.82;1528088;90;21244;-85
2020/12/18 04:26:07;;;;;;;34.40;19.75;;;;;;;4.45;85.42;101717.70;1530425;91;21243;-85
2020/12/18 04:28:34;;;;;;;36.58;20.27;;;;;;;4.48;85.43;101713.94;1539371;91;21666;-85
2020/12/18 04:31:00;;;;;;;36.23;19.12;;;;;;;4.49;85.43;101715.27;1536977;91;21708;-85
2020/12/18 04:33:26;;;;;;;30.72;17.55;;;;;;;4.51;85.43;101721.30;1530032;92;21236;-85
2020/12/18 04:35:52;;;;;;;35.43;19.98;;;;;;;4.54;85.47;101722.66;1532417;92;21261;-85
2020/12/18 04:38:19;;;;;;;34.35;18.60;;;;;;;4.57;85.45;101721.87;1526820;92;21235;-85
2020/12/18 04:40:45;;;;;;;31.52;19.02;;;;;;;4.58;85.47;101725.75;1530291;92;21298;-85
2020/12/18 04:43:11;;;;;;;33.98;18.95;;;;;;;4.61;85.47;101730.09;1539243;92;21623;-84
2020/12/18 04:45:38;;;;;;;29.02;18.35;;;;;;;4.62;85.46;101724.14;1542791;90;21655;-85
2020/12/18 04:48:08;;;;;;;31.33;18.10;;;;;;;4.64;85.47;101723.35;1531876;91;21652;-85
2020/12/18 04:50:35;;;;;;;31.30;18.45;;;;;;;4.65;85.43;101729.34;1536293;91;21241;-84
2020/12/18 04:53:02;;;;;;;31.95;17.80;;;;;;;4.68;85.45;101736.23;1539016;91;21271;-85
2020/12/18 04:55:29;;;;;;;;;;;;;;;4.68;85.43;101730.67;1545009;91;21160;-85
2020/12/18 04:57:57;;;;;;;25.32;16.60;;;;;;;4.67;85.44;101729.38;1556330;90;20294;-85
2020/12/18 05:00:24;;;;;;;29.23;17.32;;;;;;;4.68;85.45;101727.27;1535956;91;21257;-85
2020/12/18 05:02:51;;;;;;;28.40;16.07;;;;;;;4.67;85.44;101726.82;1554952;91;21281;-85
2020/12/18 05:05:17;;;;;;;31.20;18.25;;;;;;;4.69;85.47;101734.09;1544031;91;21258;-85
2020/12/18 05:07:43;;;;;;;27.20;17.20;;;;;;;4.70;85.48;101728.15;1537847;91;21218;-85
2020/12/18 05:10:10;;;;;;;26.95;16.80;;;;;;;4.71;85.50;101732.03;1541864;91;21689;-85
2020/12/18 05:12:37;;;;;;;25.82;17.30;;;;;;;4.71;85.49;101735.01;1548308;91;21253;-85
2020/12/18 05:15:05;;;;;;;30.10;17.37;;;;;;;4.72;85.50;101735.05;1550298;90;21659;-85
2020/12/18 05:17:32;;;;;;;27.55;17.60;;;;;;;4.72;85.53;101728.64;1544613;91;21248;-85
2020/12/18 05:19:59;;;;;;;31.27;17.40;;;;;;;4.75;85.54;101738.09;1537298;91;21792;-84
2020/12/18 05:22:26;;;;;;;27.67;17.05;;;;;;;4.74;85.54;101733.39;1539161;91;21274;-84
2020/12/18 05:24:55;;;;;;;29.85;17.37;;;;;;;4.75;85.52;101739.38;1535003;91;22337;-84
2020/12/18 05:27:23;;;;;;;30.37;17.15;;;;;;;4.75;85.55;101732.56;1423858;89;10000734;-85
2020/12/18 05:29:50;;;;;;;27.67;17.37;;;;;;;4.75;85.55;101736.82;1537545;91;21246;-85
2020/12/18 05:32:16;;;;;;;30.23;17.65;;;;;;;4.75;85.58;101735.13;1544069;91;21269;-85
2020/12/18 05:34:44;;;;;;;26.52;16.65;;;;;;;4.76;85.59;101738.14;1550576;88;21504;-85
2020/12/18 05:37:15;;;;;;;24.92;16.70;;;;;;;4.76;85.62;101744.55;1576722;88;147013;-85
2020/12/18 05:39:43;;;;;;;27.93;16.52;;;;;;;4.79;85.64;101745.03;1586311;89;21581;-85
2020/12/18 05:42:10;;;;;;;30.52;16.67;;;;;;;4.81;85.65;101746.81;1612497;88;21321;-85
2020/12/18 05:44:36;;;;;;;26.37;16.50;;;;;;;4.82;85.67;101743.42;1593636;88;21227;-85
2020/12/18 05:47:10;;;;;;;32.50;18.05;;;;;;;4.84;85.68;101746.89;1592100;88;21206;-85
2020/12/18 05:49:40;;;;;;;28.50;17.50;;;;;;;4.85;85.69;101753.75;1591196;88;21246;-85
2020/12/18 05:52:08;;;;;;;24.90;16.65;;;;;;;4.88;85.73;101752.55;1593893;88;21499;-85
2020/12/18 05:54:38;;;;;;;25.72;16.50;;;;;;;4.90;85.71;101752.59;1591040;88;21245;-85
2020/12/18 05:57:15;;;;;;;30.35;17.50;;;;;;;4.92;85.73;101756.05;1587949;88;21213;-85
2020/12/18 05:59:47;;;;;;;24.37;15.75;;;;;;;4.94;85.71;101757.83;1585596;88;21270;-86
2020/12/18 06:02:15;;;;;;;32.63;16.87;;;;;;;4.95;85.70;101758.70;1581387;88;21210;-85
2020/12/18 06:04:43;;;;;;;29.57;17.32;;;;;;;4.97;85.72;101757.91;1594215;88;21699;-85
2020/12/18 06:07:10;;;;;;;28.57;17.80;;;;;;;5.01;85.75;101766.54;1588127;88;21214;-85
2020/12/18 06:09:36;;;;;;;;;;;;;;;5.02;85.74;101768.28;1594820;88;21255;-85
2020/12/18 06:12:08;;;;;;;28.67;16.70;;;;;;;5.03;85.69;101766.58;1583797;88;20304;-85
2020/12/18 06:14:35;;;;;;;27.70;16.48;;;;;;;5.02;85.66;101763.56;1584002;88;21248;-85
2020/12/18 06:17:10;;;;;;;27.52;15.75;;;;;;;4.99;85.66;101769.06;1587559;88;21238;-85
2020/12/18 06:19:44;;;;;;;26.97;15.90;;;;;;;5.00;85.64;101775.06;1584747;86;21682;-85
2020/12/18 06:22:14;;;;;;;23.75;16.12;;;;;;;4.97;85.65;101769.86;1590182;88;21210;-87
2020/12/18 06:24:44;;;;;;;26.75;15.80;;;;;;;4.97;85.68;101778.83;1584206;88;21206;-87
2020/12/18 06:27:16;;;;;;;26.62;16.95;;;;;;;4.95;85.68;101777.92;1594531;88;21214;-87
2020/12/18 06:29:44;;;;;;;22.95;15.15;;;;;;;4.97;85.74;101784.82;1585473;88;22531;-85
2020/12/18 06:32:23;;;;;;;23.67;15.43;;;;;;;4.99;85.72;101789.98;1585013;88;21222;-85
2020/12/18 06:34:50;;;;;;;27.10;16.62;;;;;;;4.97;85.71;101791.23;1587224;88;21246;-85
2020/12/18 06:37:31;;;;;;;24.00;15.85;;;;;;;4.96;85.72;101788.63;1585229;88;21223;-86
2020/12/18 06:39:59;;;;;;;22.73;15.00;;;;;;;4.97;85.76;101783.95;1590316;88;21227;-86
2020/12/18 06:42:29;;;;;;;23.77;15.65;;;;;;;4.98;85.76;101797.22;1594751;88;21258;-86
2020/12/18 06:45:00;;;;;;;24.32;14.53;;;;;;;4.98;85.76;101806.20;1580537;88;21282;-85
2020/12/18 06:47:30;;;;;;;23.60;15.55;;;;;;;4.98;85.78;101811.32;1602828;88;21244;-86
2020/12/18 06:50:08;;;;;;;29.72;15.25;;;;;;;4.99;85.81;101808.80;1587225;88;21282;-86
2020/12/18 06:52:51;;;;;;;25.60;15.95;;;;;;;4.99;85.82;101807.52;1577122;88;21259;-86
2020/12/18 06:55:32;;;;;;;27.67;16.82;;;;;;;5.01;85.84;101810.12;1588952;88;21671;-86
2020/12/18 06:58:11;;;;;;;27.75;16.00;;;;;;;5.03;85.82;101817.84;1571716;88;21229;-85
2020/12/18 07:00:58;;;;;;;32.50;17.85;;;;;;;5.03;85.84;101814.88;1587359;88;21221;-87
2020/12/18 07:03:46;;;;;;;28.50;16.20;;;;;;;5.05;85.87;101819.63;1585956;88;21221;-86
2020/12/18 07:06:27;;;;;;;27.48;16.50;;;;;;;5.07;85.89;101824.38;1585508;88;21266;-84
2020/12/18 07:08:56;;;;;;;23.75;16.45;;;;;;;5.07;85.90;101824.38;1583630;88;21274;-85
2020/12/18 07:11:23;;;;;;;27.40;16.55;;;;;;;5.09;85.89;101826.98;1579810;88;21275;-86
2020/12/18 07:14:07;;;;;;;26.65;15.50;;;;;;;5.10;85.90;101824.45;1597370;88;21203;-91
2020/12/18 07:16:59;;;;;;;23.40;16.12;;;;;;;5.13;85.89;101831.36;1573828;88;21655;-93
2020/12/18 07:19:25;;;;;;;24.60;15.95;;;;;;;5.14;85.88;101827.97;1587148;89;21261;-90
2020/12/18 07:22:05;;;;;;;27.07;16.57;;;;;;;5.14;85.90;101831.39;1595761;86;21253;-92
2020/12/18 07:24:34;;;;;;;25.20;16.45;;;;;;;5.16;85.93;101831.02;1583978;87;21224;-87
2020/12/18 07:27:02;;;;;;;27.37;16.30;;;;;;;5.16;85.92;101836.15;1587925;87;21277;-85
2020/12/18 07:29:29;;;;;;;27.25;17.12;;;;;;;5.17;85.93;101834.04;1593006;88;21275;-86
2020/12/18 07:31:58;;;;;;;25.60;16.32;;;;;;;5.19;85.93;101837.92;1611118;88;21226;-86
2020/12/18 07:34:24;;;;;;;26.10;17.30;;;;;;;5.22;85.95;101834.13;1592910;88;21508;-86
2020/12/18 07:36:51;;;;;;;26.85;16.45;;;;;;;5.23;85.94;101834.16;1604481;88;21261;-87
2020/12/18 07:39:17;;;;;;;23.47;15.53;;;;;;;5.25;86.05;101827.38;1580452;88;22847;-87
2020/12/18 07:41:43;;;;;;;24.85;17.27;;;;;;;5.25;86.05;101827.38;1596195;88;21229;-86
2020/12/18 07:44:10;;;;;;;22.73;15.35;;;;;;;5.27;85.95;101827.00;1634228;86;21222;-87
2020/12/18 07:46:38;;;;;;;23.40;16.42;;;;;;;5.30;85.96;101832.63;1619347;86;22459;-87
2020/12/18 07:49:11;;;;;;;21.65;14.53;;;;;;;5.33;85.97;101833.98;1624519;86;21197;-89
2020/12/18 07:51:41;;;;;;;24.27;15.43;;;;;;;5.35;85.94;101834.89;1623061;86;21217;-89
2020/12/18 07:54:07;;;;;;;23.02;14.18;;;;;;;5.38;85.96;101834.97;1638160;86;21316;-89
2020/12/18 07:56:34;;;;;;;22.15;14.87;;;;;;;5.41;85.95;101831.61;1638227;86;21197;-89
2020/12/18 07:59:08;;;;;;;21.70;14.55;;;;;;;5.43;85.92;101835.95;1636618;86;21205;-88
2020/12/18 08:01:36;;;;;;;24.43;15.13;;;;;;;5.44;85.93;101835.53;1617915;86;21237;-89
2020/12/18 08:04:09;;;;;;;23.05;15.32;;;;;;;5.46;85.93;101840.28;1615384;86;21230;-89
2020/12/18 08:06:37;;;;;;;22.20;15.83;;;;;;;5.48;85.95;101838.62;1627090;87;21237;-88
2020/12/18 08:09:11;;;;;;;20.90;14.55;;;;;;;5.51;86.02;101839.56;1627848;86;22272;-88
2020/12/18 08:11:44;;;;;;;22.62;15.75;;;;;;;5.56;86.03;101843.11;1645469;86;21253;-87
2020/12/18 08:14:17;;;;;;;21.82;14.90;;;;;;;5.60;86.04;101835.07;1629627;86;21261;-89
2020/12/18 08:16:44;;;;;;;20.00;14.55;;;;;;;5.67;86.06;101847.22;1631081;86;21258;-88
2020/12/18 08:19:20;;;;;;;20.97;15.13;;;;;;;5.73;86.04;101846.46;1649478;84;21245;-90
2020/12/18 08:21:46;;;;;;;29.02;15.78;;;;;;;5.75;85.96;101853.37;1631352;86;21233;-87
2020/12/18 08:24:27;;;;;;;21.33;14.68;;;;;;;5.78;85.96;101851.29;1658147;84;22201;-86
2020/12/18 08:27:17;;;;;;;22.50;14.60;;;;;;;5.81;85.95;101848.80;1655401;85;21242;-86
2020/12/18 08:29:44;;;;;;;19.98;13.83;;;;;;;5.84;85.91;101846.30;1680735;83;21221;-85
2020/12/18 08:32:23;;;;;;;;;;;;;;;5.84;85.84;101851.44;1675300;83;21250;-85
2020/12/18 08:34:51;;;;;;;20.25;14.10;;;;;;;5.85;85.90;101857.02;1659047;84;20797;-85
2020/12/18 08:37:23;;;;;;;19.75;13.32;;;;;;;5.85;85.86;101851.47;1660450;83;21689;-85
2020/12/18 08:39:49;;;;;;;21.68;14.75;;;;;;;5.85;85.85;101856.60;1679008;84;21683;-85
2020/12/18 08:42:15;;;;;;;22.90;14.40;;;;;;;5.88;85.93;101854.52;1685208;83;21734;-85
2020/12/18 08:44:44;;;;;;;23.77;15.18;;;;;;;5.93;85.98;101856.39;1673924;83;21229;-85
2020/12/18 08:47:26;;;;;;;23.15;14.30;;;;;;;5.96;85.94;101860.73;1678001;83;21235;-85
2020/12/18 08:49:56;;;;;;;23.10;14.78;;;;;;;6.00;85.95;101865.11;1668975;83;21258;-85
2020/12/18 08:52:29;;;;;;;25.75;15.95;;;;;;;6.05;86.00;101869.93;1639953;85;21192;-85
2020/12/18 08:55:07;;;;;;;25.02;15.30;;;;;;;6.11;86.00;101864.94;1662711;84;21209;-85
2020/12/18 08:57:36;;;;;;;22.82;14.58;;;;;;;6.16;85.95;101870.17;1649673;84;21661;-86
2020/12/18 09:00:24;;;;;;;23.73;15.78;;;;;;;6.19;85.93;101871.52;1663375;84;21206;-87
2020/12/18 09:02:58;;;;;;;24.15;14.45;;;;;;;6.21;85.97;101877.14;1662564;84;21314;-86
2020/12/18 09:05:42;;;;;;;28.77;16.32;;;;;;;6.27;85.99;101886.66;1673949;84;21662;-86
2020/12/18 09:08:19;;;;;;;26.52;16.77;;;;;;;6.31;85.96;101889.33;1681143;83;22134;-86
2020/12/18 09:10:59;;;;;;;26.00;16.93;;;;;;;6.33;85.93;101884.22;1664836;84;21532;-85
2020/12/18 09:13:30;;;;;;;26.90;16.62;;;;;;;6.37;85.92;101883.88;1655472;86;21159;-86
2020/12/18 09:16:02;;;;;;;28.55;17.23;;;;;;;6.40;85.90;101886.51;1669995;83;21198;-86
2020/12/18 09:18:34;;;;;;;24.25;16.75;;;;;;;6.43;85.94;101875.88;1661521;83;21238;-86
2020/12/18 09:21:16;;;;;;;25.05;16.02;;;;;;;6.44;85.86;101881.47;1647863;85;21242;-86
2020/12/18 09:23:44;;;;;;;25.72;16.90;;;;;;;6.47;85.85;101883.23;1658076;85;21207;-85
2020/12/18 09:26:10;;;;;;;25.17;16.77;;;;;;;6.48;85.86;101879.83;1651920;84;21206;-87
2020/12/18 09:28:42;;;;;;;24.77;16.70;;;;;;;6.50;85.88;101881.59;1636703;85;21383;-87
2020/12/18 09:31:10;;;;;;;26.97;16.10;;;;;;;6.52;85.84;101881.63;1653674;85;21214;-87
2020/12/18 09:33:37;;;;;;;;;;;;;;;6.54;85.91;101877.39;1657111;85;21182;-88
2020/12/18 09:36:10;;;;;;;26.68;17.27;;;;;;;6.58;85.87;101882.62;1633168;86;21018;-87
2020/12/18 09:38:43;;;;;;;26.70;17.02;;;;;;;6.61;85.88;101884.39;1643895;85;21222;-87
2020/12/18 09:41:13;;;;;;;25.88;16.75;;;;;;;6.64;85.86;101881.88;1648256;85;21375;-87
2020/12/18 09:43:40;;;;;;;34.43;18.17;;;;;;;6.67;85.86;101887.09;1664287;85;21670;-87
2020/12/18 09:46:18;;;;;;;27.00;17.73;;;;;;;6.70;85.84;101887.15;1645616;85;21754;-87
2020/12/18 09:48:36;;;;;;;24.77;16.45;;;;;;;6.73;85.86;101894.92;1647861;85;21195;-86
2020/12/18 09:51:02;;;;;;;29.27;18.35;;;;;;;6.75;85.84;101879.11;1645945;85;21230;-86
2020/12/18 09:53:28;;;;;;;25.05;16.48;;;;;;;6.78;85.84;101889.84;1608425;87;22049;-86
2020/12/18 09:55:55;;;;;;;26.20;17.45;;;;;;;6.82;85.65;101883.92;1641409;85;21234;-86
2020/12/18 09:58:21;;;;;;;26.42;16.80;;;;;;;6.82;85.65;101883.92;1624761;87;21810;-86
2020/12/18 10:00:48;;;;;;;36.25;16.62;;;;;;;6.85;85.77;101891.70;1642221;85;21201;-87
2020/12/18 10:03:15;;;;;;;25.23;17.02;;;;;;;6.84;85.69;101887.39;1616168;87;21644;-87
2020/12/18 10:05:52;;;;;;;27.58;16.73;;;;;;;6.83;85.66;101892.09;1615350;87;22724;-86
2020/12/18 10:08:19;;;;;;;27.13;16.75;;;;;;;6.83;85.69;101885.66;1644389;85;21207;-86
2020/12/18 10:10:47;;;;;;;26.55;17.35;;;;;;;6.82;85.72;101882.64;1596973;88;21222;-86
2020/12/18 10:13:18;;;;;;;28.47;18.23;;;;;;;6.81;85.63;101884.34;1626962;87;21263;-87
2020/12/18 10:15:48;;;;;;;28.35;16.42;;;;;;;6.82;85.70;101883.51;1639636;85;21222;-87
2020/12/18 10:18:14;;;;;;;23.15;16.05;;;;;;;6.84;85.74;101883.53;1646209;84;21195;-87
2020/12/18 10:20:43;;;;;;;26.50;17.02;;;;;;;6.87;85.72;101874.17;1649442;86;27133;-87
2020/12/18 10:23:10;;;;;;;24.67;16.40;;;;;;;6.90;85.74;101883.23;1647282;85;21218;-88
2020/12/18 10:25:42;;;;;;;27.42;18.25;;;;;;;6.93;85.73;101873.44;1645912;86;21275;-89
2020/12/18 10:28:10;;;;;;;30.25;18.07;;;;;;;6.93;85.60;101874.72;1619981;87;21194;-87
2020/12/18 10:30:40;;;;;;;28.98;18.48;;;;;;;6.91;85.63;101877.67;1650616;85;21209;-88
2020/12/18 10:38:42;;;;;;;33.95;20.05;;;;;;;7.00;85.68;101863.71;1693980;83;21068;-88
2020/12/18 10:41:10;;;;;;;33.45;21.57;;;;;;;7.03;85.68;101870.20;1679428;83;21203;-89
2020/12/18 10:43:39;;;;;;;36.15;21.50;;;;;;;7.05;85.66;101874.95;1656794;85;21241;-88
2020/12/18 10:46:11;;;;;;;34.43;20.30;;;;;;;7.07;85.69;101869.42;1677420;84;21671;-88
2020/12/18 10:48:39;;;;;;;32.70;20.40;;;;;;;7.08;85.65;101859.58;1653692;85;21215;-89
2020/12/18 10:51:05;;;;;;;34.03;20.80;;;;;;;7.10;85.66;101870.76;1664688;84;21191;-87
2020/12/18 10:53:32;;;;;;;43.13;22.67;;;;;;;7.14;85.72;101869.98;1635822;85;21671;-88
2020/12/18 10:56:01;;;;;;;33.50;21.07;;;;;;;7.19;85.73;101867.48;1669562;84;21935;-88
2020/12/18 10:58:28;;;;;;;38.60;22.25;;;;;;;7.23;85.66;101871.84;1665777;85;21215;-88
2020/12/18 11:00:55;;;;;;;34.25;19.48;;;;;;;7.25;85.69;101874.89;1595765;88;22169;-88
2020/12/18 11:03:28;;;;;;;33.95;20.95;;;;;;;7.32;85.59;101861.69;1604061;87;21263;-89
2020/12/18 11:05:54;;;;;;;35.78;20.62;;;;;;;7.34;85.62;101870.30;1590089;89;21259;-88
2020/12/18 11:08:26;;;;;;;34.88;20.02;;;;;;;7.39;85.65;101877.68;1594916;88;21620;-91
2020/12/18 11:11:18;;;;;;;33.08;19.92;;;;;;;7.45;85.69;101879.49;1592716;89;21268;-91
2020/12/18 11:13:51;;;;;;;30.23;19.40;;;;;;;7.51;85.67;101865.02;1597863;89;21268;-91
2020/12/18 11:16:37;;;;;;;30.52;20.05;;;;;;;7.57;85.62;101867.70;1610969;88;21238;-89
2020/12/18 11:19:17;;;;;;;31.60;19.95;;;;;;;7.61;85.58;101866.91;1610252;88;21324;-89
2020/12/18 11:21:48;;;;;;;34.83;19.12;;;;;;;7.66;85.53;101868.27;1589716;87;21247;-89
2020/12/18 11:24:24;;;;;;;29.90;18.45;;;;;;;7.68;85.46;101865.72;1577872;88;21307;-89
2020/12/18 11:26:54;;;;;;;31.57;19.57;;;;;;;7.70;85.41;101861.04;1599631;88;22058;-88
2020/12/18 11:29:28;;;;;;;27.48;17.52;;;;;;;7.72;85.37;101870.08;1518918;92;21357;-89
2020/12/18 11:31:57;;;;;;;31.40;18.73;;;;;;;7.72;85.30;101862.35;1568024;88;21293;-89
2020/12/18 11:34:28;;;;;;;29.12;18.35;;;;;;;7.72;85.33;101864.92;1583159;89;21340;-89